Time;durP1;ratioP1;P1;durP2;ratioP2;P2;SDS_P1;SDS_P2;PMS_P1;PMS_P2;Temp;Humidity;BMP_temperature;BMP_pressure;BME280_temperature;BME280_humidity;BME280_pressure;Samples;Min_cycle;Max_cycle;Signal;HPM_P1;HPM_P2
2023/09/08 00:02:23;;;;;;;;;;;;;;;19.70;89.35;101002.44;6137338;23;19916;-80
2023/09/08 00:04:51;;;;;;;;;;;;;;;19.66;89.47;100997.75;6138498;23;19948;-82
2023/09/08 00:07:17;;;;;;;;;;;;;;;19.62;89.49;101001.84;6138601;23;19917;-81
2023/09/08 00:09:44;;;;;;;;;;;;;;;19.58;89.56;100992.66;6136667;23;19928;-81
2023/09/08 00:12:10;;;;;;;;;;;;;;;19.54;89.91;101000.22;6132786;23;19917;-81
2023/09/08 00:14:36;;;;;;;;;;;;;;;19.48;90.36;100995.69;6135279;23;19955;-80
2023/09/08 00:17:04;;;;;;;;;;;;;;;19.46;90.55;101003.88;6137815;23;19916;-81
2023/09/08 00:19:30;;;;;;;;;;;;;;;19.38;90.65;100993.44;6137444;23;19917;-81
2023/09/08 00:21:58;;;;;;;;;;;;;;;19.33;90.92;100987.97;6137285;23;19917;-82
2023/09/08 00:24:25;;;;;;;;;;;;;;;19.31;91.01;100990.00;6135213;23;19917;-81
2023/09/08 00:26:51;;;;;;;;;;;;;;;19.30;91.23;100988.38;6137553;23;19964;-80
2023/09/08 00:29:17;;;;;;;;;;;;;;;19.29;91.11;100989.41;6137142;23;19921;-80
2023/09/08 00:31:44;;;;;;;;;;;;;;;19.21;91.62;100985.09;6137516;23;19924;-81
2023/09/08 00:34:09;;;;;;;;;;;;;;;19.20;91.84;100985.31;6137548;23;20234;-80
2023/09/08 00:36:36;;;;;;;;;;;;;;;19.18;91.92;100987.34;6137322;23;19924;-80
2023/09/08 00:39:03;;;;;;;;;;;;;;;19.16;91.79;100992.03;6137646;23;19921;-81
2023/09/08 00:41:30;;;;;;;;;;;;;;;19.07;92.23;100994.06;6137432;23;19944;-80
2023/09/08 00:43:56;;;;;;;;;;;;;;;19.06;92.62;100995.09;6137647;23;19924;-81
2023/09/08 00:46:23;;;;;;;;;;;;;;;19.04;92.70;100994.47;6138245;23;19944;-81
2023/09/08 00:48:49;;;;;;;;;;;;;;;18.98;92.91;100997.94;6139646;23;19917;-79
2023/09/08 00:51:16;;;;;;;;;;;;;;;18.95;93.27;100994.88;6138511;23;19917;-79
2023/09/08 00:53:42;;;;;;;;;;;;;;;18.96;93.27;100991.19;6136737;23;19948;-81
2023/09/08 00:56:11;;;;;;;;;;;;;;;18.94;93.27;100999.34;6135484;23;19928;-80
2023/09/08 00:58:38;;;;;;;;;;;;;;;18.92;93.40;101004.03;6137521;23;19917;-80
2023/09/08 01:01:05;;;;;;;;;;;;;;;18.86;93.50;100997.72;6136934;23;19917;-79
2023/09/08 01:03:32;;;;;;;;;;;;;;;18.81;93.88;100999.34;6137007;23;19931;-81
2023/09/08 01:05:59;;;;;;;;;;;;;;;18.79;93.83;100990.78;6133568;23;19924;-80
2023/09/08 01:08:26;;;;;;;;;;;;;;;18.79;93.81;101001.38;6133419;23;20326;-80
2023/09/08 01:10:52;;;;;;;;;;;;;;;18.78;94.01;100999.75;6133543;23;19923;-79
2023/09/08 01:13:20;;;;;;;;;;;;;;;18.80;94.05;100993.22;6132363;23;20368;-78
2023/09/08 01:15:46;;;;;;;;;;;;;;;18.82;94.07;100995.69;6133040;23;19924;-80
2023/09/08 01:18:13;;;;;;;;;;;;;;;18.77;94.16;101004.22;6132906;23;19944;-79
2023/09/08 01:20:48;;;;;;;;;;;;;;;18.78;94.44;100995.25;6132912;23;19924;-79
2023/09/08 01:23:19;;;;;;;;;;;;;;;18.74;94.43;100994.03;6132250;23;19948;-78
2023/09/08 01:25:49;;;;;;;;;;;;;;;18.69;94.74;100991.16;6132781;23;19923;-79
2023/09/08 01:28:16;;;;;;;;;;;;;;;18.70;95.00;100989.31;6131832;23;19916;-80
2023/09/08 01:30:42;;;;;;;;;;;;;;;18.70;95.08;100990.13;6131424;23;19917;-81
2023/09/08 01:33:09;;;;;;;;;;;;;;;18.64;95.25;100988.28;6142696;23;19917;-81
2023/09/08 01:35:36;;;;;;;;;;;;;;;18.55;95.53;100989.44;6143522;23;19944;-80
2023/09/08 01:38:02;;;;;;;;;;;;;;;18.53;95.82;100987.00;6144478;23;20102;-78
2023/09/08 01:40:29;;;;;;;;;;;;;;;18.46;96.06;100995.94;6146333;23;19912;-83
2023/09/08 01:42:56;;;;;;;;;;;;;;;18.47;96.22;100981.69;6147210;23;19911;-81
2023/09/08 01:45:23;;;;;;;12.23;9.93;;;;;;;18.41;96.43;100977.19;6143820;23;19917;-80
2023/09/08 01:47:50;;;;;;;14.48;9.65;;;;;;;18.43;96.27;100981.25;6143721;23;20026;-81
2023/09/08 01:50:21;;;;;;;13.55;10.15;;;;;;;18.41;96.31;100980.66;6136213;23;20500;-82
2023/09/08 01:52:48;;;;;;;12.15;10.30;;;;;;;18.40;96.09;100975.56;6136110;23;20026;-81
2023/09/08 01:55:16;;;;;;;14.65;9.75;;;;;;;18.34;96.03;100971.06;6135854;23;20026;-81
2023/09/08 01:57:42;;;;;;;13.63;10.23;;;;;;;18.36;96.12;100974.31;6136383;23;20036;-81
2023/09/08 02:00:12;;;;;;;13.70;10.07;;;;;;;18.29;96.56;100973.47;6133510;23;20037;-81
2023/09/08 02:02:38;;;;;;;12.27;9.82;;;;;;;18.26;96.67;100973.88;6133218;23;20033;-78
2023/09/08 02:05:06;;;;;;;18.02;10.55;;;;;;;18.24;96.93;100974.06;6135931;23;20036;-80
2023/09/08 02:07:32;;;;;;;12.57;10.43;;;;;;;18.14;97.16;100971.78;6137304;23;20026;-79
2023/09/08 02:09:59;;;;;;;15.65;10.85;;;;;;;18.16;97.16;100979.53;6137827;23;20034;-79
2023/09/08 02:12:26;;;;;;;13.48;10.32;;;;;;;18.12;97.33;100978.28;6137428;23;20022;-80
2023/09/08 02:14:52;;;;;;;13.37;11.07;;;;;;;18.04;97.55;100978.44;6146230;23;20481;-80
2023/09/08 02:17:20;;;;;;;;;;;;;;;18.04;97.69;100979.25;6161822;23;20033;-80
2023/09/08 02:19:47;;;;;;;;;;;;;;;18.03;97.65;100974.97;6163351;23;19936;-80
2023/09/08 02:22:13;;;;;;;;;;;;;;;18.01;97.73;100974.34;6165540;23;19920;-80
2023/09/08 02:24:39;;;;;;;;;;;;;;;17.99;97.72;100976.38;6173867;23;19929;-79
2023/09/08 02:27:06;;;;;;;;;;;;;;;17.99;97.62;100973.75;6166350;23;19947;-81
2023/09/08 02:29:32;;;;;;;;;;;;;;;17.94;97.51;100965.59;6165908;23;19916;-80
2023/09/08 02:32:01;;;;;;;;;;;;;;;17.92;97.49;100970.25;6170847;23;19940;-81
2023/09/08 02:34:29;;;;;;;13.88;10.32;;;;;;;17.94;97.29;100970.88;6170315;23;19917;-81
2023/09/08 02:36:55;;;;;;;15.75;11.05;;;;;;;17.90;97.32;100967.00;6171418;23;20040;-81
2023/09/08 02:39:23;;;;;;;14.30;10.10;;;;;;;17.88;97.13;100959.25;6169524;23;20033;-81
2023/09/08 02:41:49;;;;;;;15.15;10.38;;;;;;;17.95;96.89;100966.41;6165422;23;20365;-79
2023/09/08 02:44:16;;;;;;;15.20;11.00;;;;;;;17.95;96.74;100966.41;6158325;23;20053;-79
2023/09/08 02:46:42;;;;;;;;;;;;;;;17.94;96.60;100960.28;6162865;23;20265;-77
2023/09/08 02:49:09;;;;;;;;;;;;;;;17.88;96.66;100963.72;6159440;23;19956;-81
2023/09/08 02:51:36;;;;;;;;;;;;;;;17.85;96.93;100970.22;6170287;23;19921;-83
2023/09/08 02:54:03;;;;;;;;;;;;;;;17.82;97.17;100973.25;6169188;23;19916;-82
2023/09/08 02:56:29;;;;;;;;;;;;;;;17.81;97.65;100976.91;6170362;23;19916;-83
2023/09/08 02:58:56;;;;;;;;;;;;;;;17.79;97.88;100972.81;6166723;23;19917;-82
2023/09/08 03:01:22;;;;;;;;;;;;;;;17.79;98.02;100978.13;6167836;23;19940;-82
2023/09/08 03:03:49;;;;;;;;;;;;;;;17.75;98.23;100979.53;6169369;23;20252;-85
2023/09/08 03:06:16;;;;;;;;;;;;;;;17.72;98.50;100983.38;6168987;23;19928;-83
2023/09/08 03:08:43;;;;;;;;;;;;;;;17.72;98.65;100987.84;6162262;23;19917;-81
2023/09/08 03:11:10;;;;;;;;;;;;;;;17.70;98.66;100993.34;6162468;23;19955;-81
2023/09/08 03:13:36;;;;;;;;;;;;;;;17.66;98.76;100988.63;6161800;23;19916;-80
2023/09/08 03:16:04;;;;;;;;;;;;;;;17.56;99.04;100981.81;6159602;23;19940;-81
2023/09/08 03:18:30;;;;;;;;;;;;;;;17.55;99.28;100980.16;6166793;23;19947;-82
2023/09/08 03:20:56;;;;;;;;;;;;;;;17.53;99.46;100979.53;6167984;23;19958;-81
2023/09/08 03:23:23;;;;;;;;;;;;;;;17.45;99.71;100985.00;6167623;23;20355;-81
2023/09/08 03:25:51;;;;;;;;;;;;;;;17.42;99.87;100977.44;6168565;23;19977;-82
2023/09/08 03:28:17;;;;;;;;;;;;;;;17.42;99.97;100980.09;6164915;23;19921;-81
2023/09/08 03:30:43;;;;;;;;;;;;;;;17.45;99.94;100974.41;6164623;23;19916;-83
2023/09/08 03:33:10;;;;;;;;;;;;;;;17.45;100.00;100969.13;6173426;23;19916;-84
2023/09/08 03:35:36;;;;;;;;;;;;;;;17.41;99.94;100965.22;6173160;23;20405;-83
2023/09/08 03:38:03;;;;;;;;;;;;;;;17.33;100.00;100967.19;6173841;23;19917;-82
2023/09/08 03:40:29;;;;;;;;;;;;;;;17.27;100.00;100963.50;6170809;23;19928;-84
2023/09/08 03:42:57;;;;;;;;;;;;;;;17.25;100.00;100970.78;6168814;23;19927;-82
2023/09/08 03:45:23;;;;;;;;;;;;;;;17.16;100.00;100972.75;6165590;23;19955;-82
2023/09/08 03:47:49;;;;;;;;;;;;;;;17.19;100.00;100977.66;6164189;23;19917;-84
2023/09/08 03:50:16;;;;;;;;;;;;;;;17.17;100.00;100973.56;6162448;23;19952;-82
2023/09/08 03:52:42;;;;;;;;;;;;;;;17.18;100.00;100967.28;6162501;23;19936;-84
2023/09/08 03:55:09;;;;;;;;;;;;;;;17.18;100.00;100961.97;6161898;23;19916;-83
2023/09/08 03:57:35;;;;;;;;;;;;;;;17.17;100.00;100966.47;6161878;23;19927;-84
2023/09/08 04:00:05;;;;;;;;;;;;;;;17.20;100.00;100973.19;6162604;23;19916;-82
2023/09/08 04:02:31;;;;;;;;;;;;;;;17.17;100.00;100958.53;6161721;23;20329;-82
2023/09/08 04:04:58;;;;;;;;;;;;;;;17.07;100.00;100973.06;6160751;23;20337;-82
2023/09/08 04:07:24;;;;;;;;;;;;;;;16.97;100.00;100962.84;6164515;23;19917;-82
2023/09/08 04:09:50;;;;;;;;;;;;;;;16.95;100.00;100974.59;6165151;23;19923;-81
2023/09/08 04:12:17;;;;;;;;;;;;;;;16.94;100.00;100968.50;6165165;23;19948;-81
2023/09/08 04:14:46;;;;;;;;;;;;;;;16.94;100.00;100972.97;6163450;23;19951;-82
2023/09/08 04:17:14;;;;;;;;;;;;;;;16.92;100.00;100971.34;6164841;23;20231;-82
2023/09/08 04:19:41;;;;;;;;;;;;;;;16.88;100.00;100977.19;6163961;23;19923;-81
2023/09/08 04:22:07;;;;;;;;;;;;;;;16.90;100.00;100973.34;6163408;23;20348;-81
2023/09/08 04:24:35;;;;;;;;;;;;;;;16.94;100.00;100978.25;6163625;23;19936;-84
2023/09/08 04:27:02;;;;;;;;;;;;;;;16.93;100.00;100982.72;6162750;23;20317;-82
2023/09/08 04:29:28;;;;;;;;;;;;;;;16.91;100.00;100977.63;6162633;23;19923;-82
2023/09/08 04:31:55;;;;;;;;;;;;;;;16.88;100.00;100977.19;6163089;23;19936;-82
2023/09/08 04:34:22;;;;;;;;;;;;;;;16.87;100.00;100978.19;6163965;23;20436;-82
2023/09/08 04:36:49;;;;;;;;;;;;;;;16.86;100.00;100973.91;6164075;23;19944;-82
2023/09/08 04:39:15;;;;;;;;;;;;;;;16.85;100.00;100980.19;6167435;23;19940;-84
2023/09/08 04:41:42;;;;;;;;;;;;;;;16.79;100.00;100981.78;6167540;23;19940;-83
2023/09/08 04:44:08;;;;;;;;;;;;;;;16.78;100.00;100985.41;6167335;23;19947;-80
2023/09/08 04:46:35;;;;;;;;;;;;;;;16.80;100.00;100975.47;6164682;23;19974;-83
2023/09/08 04:49:02;;;;;;;;;;;;;;;16.74;100.00;100970.13;6167056;23;19917;-82
2023/09/08 04:51:31;;;;;;;;;;;;;;;16.71;100.00;100979.25;6164504;23;19923;-83
2023/09/08 04:53:57;;;;;;;;;;;;;;;16.72;100.00;100983.53;6165893;23;20332;-85
2023/09/08 04:56:24;;;;;;;;;;;;;;;16.69;100.00;100983.91;6169111;23;19940;-83
2023/09/08 04:58:50;;;;;;;;;;;;;;;16.70;100.00;100993.47;6168352;23;20123;-83
2023/09/08 05:01:17;;;;;;;;;;;;;;;16.69;100.00;100983.91;6165063;23;19926;-82
2023/09/08 05:03:45;;;;;;;;;;;;;;;16.70;100.00;100988.19;6164260;23;19928;-82
2023/09/08 05:06:11;;;;;;;;;;;;;;;16.69;100.00;100983.91;6164519;23;19947;-83
2023/09/08 05:08:39;;;;;;;;;;;;;;;16.68;100.00;100979.63;6163661;23;19916;-82
2023/09/08 05:11:05;;;;;;;;;;;;;;;16.70;100.00;100979.44;6162158;23;19991;-81
2023/09/08 05:13:32;;;;;;;;;;;;;;;16.71;100.00;100986.34;6166260;23;19947;-82
2023/09/08 05:16:10;;;;;;;;;;;;;;;16.73;100.00;100987.81;6170718;23;19964;-82
2023/09/08 05:18:36;;;;;;;;;;;;;;;16.73;100.00;100982.50;6170701;23;19924;-81
2023/09/08 05:21:03;;;;;;;;;;;;;;;16.72;100.00;100975.59;6169007;23;19951;-81
2023/09/08 05:23:29;;;;;;;;;;;;;;;16.69;100.00;100981.25;6162858;23;19946;-80
2023/09/08 05:25:57;;;;;;;;;;;;;;;16.71;100.00;100984.53;6160132;23;19944;-79
2023/09/08 05:28:23;;;;;;;;;;;;;;;16.73;100.00;100982.50;6160669;23;19916;-80
2023/09/08 05:30:51;;;;;;;;;;;;;;;16.77;100.00;100980.31;6162062;23;20316;-80
2023/09/08 05:33:17;;;;;;;;;;;;;;;16.82;99.57;100981.41;6158123;23;20003;-78
2023/09/08 05:35:45;;;;;;;;;;;;;;;16.84;99.20;100979.38;6161071;23;19944;-79
2023/09/08 05:38:12;;;;;;;;;;;;;;;16.95;98.91;100974.59;6161661;23;20351;-79
2023/09/08 05:40:38;;;;;;;;;;;;;;;17.01;98.38;100976.50;6163365;23;19951;-80
2023/09/08 05:43:06;;;;;;;;;;;;;;;17.12;97.88;100975.97;6162509;23;19923;-80
2023/09/08 05:45:33;;;;;;;;;;;;;;;17.18;97.56;100973.38;6166049;23;19916;-79
2023/09/08 05:47:59;;;;;;;;;;;;;;;17.27;97.13;100978.53;6163213;23;19923;-80
2023/09/08 05:50:26;;;;;;;;;;;;;;;17.35;96.74;100981.06;6162087;23;19916;-79
2023/09/08 05:52:52;;;;;;;;;;;;;;;17.44;96.11;100985.19;6157419;23;19916;-79
2023/09/08 05:55:18;;;;;;;;;;;;;;;17.51;95.73;100984.22;6157474;23;20070;-79
2023/09/08 05:57:45;;;;;;;;;;;;;;;17.65;95.23;100995.75;6156106;23;19916;-77
2023/09/08 06:00:13;;;;;;;;;;;;;;;17.75;94.73;100993.56;6155799;23;20084;-80
2023/09/08 06:02:39;;;;;;;;;;;;;;;17.86;94.44;100984.28;6166245;23;19924;-79
2023/09/08 06:05:06;;;;;;;;;;;;;;;17.95;94.23;100993.69;6160418;23;19917;-80
2023/09/08 06:07:32;;;;;;;;;;;;;;;18.06;93.87;100985.19;6163625;23;19928;-80
2023/09/08 06:09:59;;;;;;;;;;;;;;;18.18;93.27;100985.44;6164710;23;20237;-80
2023/09/08 06:12:25;;;;;;;;;;;;;;;18.31;92.46;100982.03;6163030;23;19917;-80
2023/09/08 06:14:52;;;;;;;;;;;;;;;18.45;92.02;100995.13;6163840;23;19948;-79
2023/09/08 06:17:20;;;;;;;;;;;;;;;18.58;91.66;100984.56;6167075;23;20264;-79
2023/09/08 06:19:46;;;;;;;;;;;;;;;18.78;90.96;100982.00;6162438;23;19944;-79
2023/09/08 06:22:12;;;;;;;;;;;;;;;19.99;87.59;100982.56;6164227;23;19940;-79
2023/09/08 06:24:39;;;;;;;;;;;;;;;21.22;82.30;100959.22;6161668;23;19924;-78
2023/09/08 06:27:06;;;;;;;;;;;;;;;22.45;78.18;100967.91;6165272;23;19917;-81
2023/09/08 06:29:33;;;;;;;;;;;;;;;23.72;73.95;100957.66;6165535;23;19951;-79
2023/09/08 06:31:59;;;;;;;;;;;;;;;24.50;70.34;100953.63;6165393;23;19916;-80
2023/09/08 06:34:27;;;;;;;;;;;;;;;24.82;68.71;100956.56;6167119;23;19917;-81
2023/09/08 06:36:53;;;;;;;;;;;;;;;24.80;67.78;100948.78;6165938;23;19943;-78
2023/09/08 06:39:20;;;;;;;;;;;;;;;24.45;68.16;100964.22;6166634;23;19940;-82
2023/09/08 06:41:46;;;;;;;;;;;;;;;23.60;71.06;100974.75;6167507;23;19924;-81
2023/09/08 06:44:12;;;;;;;;;;;;;;;23.78;70.86;100977.28;6169139;23;19924;-83
2023/09/08 06:46:39;;;;;;;;;;;;;;;23.70;70.32;100964.28;6171595;23;19916;-82
2023/09/08 06:49:05;;;;;;;;;;;;;;;24.24;69.69;100962.16;6167168;23;19923;-79
2023/09/08 06:51:33;;;;;;;;;;;;;;;25.28;66.96;100960.81;6166235;23;19948;-82
2023/09/08 06:54:00;;;;;;;;;;;;;;;26.07;64.56;100953.31;6163412;23;19952;-81
2023/09/08 06:56:26;;;;;;;;;;;;;;;26.29;63.67;100950.59;6164959;23;19957;-82
2023/09/08 06:58:53;;;;;;;;;;;;;;;25.46;64.48;100954.38;6166505;23;20270;-82
2023/09/08 07:01:19;;;;;;;;;;;;;;;25.97;63.55;100953.22;6165698;23;19958;-79
2023/09/08 07:03:46;;;;;;;;;;;;;;;24.81;66.20;100963.78;6164710;23;19947;-82
2023/09/08 07:06:12;;;;;;;;;;;;;;;25.03;66.43;100965.78;6166037;23;19917;-81
2023/09/08 07:08:40;;;;;;;;;;;;;;;24.62;66.58;100962.38;6164592;23;19957;-82
2023/09/08 07:11:07;;;;;;;;;;;;;;;24.94;65.70;100949.28;6162670;23;19940;-78
2023/09/08 07:13:33;;;;;;;;;;;;;;;24.69;66.71;100955.00;6162340;23;19916;-80
2023/09/08 07:16:00;;;;;;;;;;;;;;;24.73;66.01;100948.13;6164683;23;19917;-81
2023/09/08 07:18:26;;;;;;;;;;;;;;;24.66;66.22;100963.50;6164445;23;19924;-79
2023/09/08 07:20:52;;;;;;;;;;;;;;;25.58;64.64;100959.63;6163517;23;19916;-80
2023/09/08 07:23:19;;;;;;;;;;;;;;;24.75;64.43;100943.34;6162673;23;19939;-81
2023/09/08 07:25:47;;;;;;;;;;;;;;;24.89;65.34;100951.06;6163742;23;19948;-81
2023/09/08 07:28:14;;;;;;;;;;;;;;;25.35;63.59;100948.06;6165054;23;20357;-82
2023/09/08 07:30:40;;;;;;;;;;;;;;;26.56;62.20;100939.88;6166560;23;19954;-81
2023/09/08 07:33:06;;;;;;;;;;;;;;;25.87;62.97;100950.41;6167126;23;20333;-81
2023/09/08 07:35:33;;;;;;;;;;;;;;;26.10;62.53;100944.75;6165171;23;19952;-79
2023/09/08 07:37:59;;;;;;;;;;;;;;;26.22;61.88;100941.13;6164306;23;20364;-82
2023/09/08 07:40:26;;;;;;;;;;;;;;;26.67;60.81;100946.16;6165729;23;19962;-82
2023/09/08 07:42:53;;;;;;;;;;;;;;;25.66;62.05;100946.63;6160915;23;19952;-83
2023/09/08 07:45:20;;;;;;;;;;;;;;;26.19;61.44;100938.94;6163143;23;19924;-80
2023/09/08 07:47:46;;;;;;;;;;;;;;;25.97;62.38;100942.47;6163412;23;19971;-82
2023/09/08 07:50:20;;;;;;;;;;;;;;;25.94;62.31;100942.97;6163750;23;19944;-82
2023/09/08 07:52:47;;;;;;;;;;;;;;;26.38;61.39;100932.22;6163526;23;19968;-82
2023/09/08 07:55:13;;;;;;;;;;;;;;;26.47;60.54;100936.03;6165086;23;19936;-81
2023/09/08 07:57:40;;;;;;;;;;;;;;;26.73;60.72;100945.97;6165635;23;19927;-81
2023/09/08 08:00:10;;;;;;;;;;;;;;;26.85;60.64;100937.75;6164492;23;19983;-81
2023/09/08 08:02:36;;;;;;;;;;;;;;;26.79;59.92;100928.03;6165058;23;19988;-80
2023/09/08 08:05:02;;;;;;;;;;;;;;;26.34;60.92;100937.28;6163937;23;20241;-83
2023/09/08 08:07:29;;;;;;;;;;;;;;;25.96;62.12;100940.88;6164233;23;20268;-81
2023/09/08 08:09:56;;;;;;;;;;;;;;;25.89;61.91;100940.25;6165781;23;19967;-79
2023/09/08 08:12:22;;;;;;;;;;;;;;;26.37;61.26;100934.09;6161755;23;20468;-82
2023/09/08 08:21:45;;;;;;;;;;;;;;;;;;;;;
2023/09/08 08:27:51;;;;;;;;;;;;;;;26.49;60.33;100933.91;6007948;23;20378;-79
2023/09/08 08:30:18;;;;;;;;;;;;;;;27.26;59.50;100933.50;6110456;23;19932;-79
2023/09/08 08:32:45;;;;;;;;;;;;;;;26.93;60.41;100941.84;6161910;23;19955;-80
2023/09/08 08:35:11;;;;;;;;;;;;;;;26.59;59.86;100927.84;6161734;23;19916;-79
2023/09/08 08:37:43;;;;;;;8.90;6.70;;;;;;;28.05;58.17;100927.16;6161268;23;20352;-80
2023/09/08 08:40:12;;;;;;;10.87;7.20;;;;;;;27.72;59.01;100937.25;6159546;23;25052;-78
2023/09/08 08:42:39;;;;;;;7.85;6.32;;;;;;;28.27;58.54;100926.97;6161185;23;20241;-77
2023/09/08 08:45:07;;;;;;;8.82;6.63;;;;;;;27.89;57.43;100915.53;6160222;23;20056;-79
2023/09/08 08:47:34;;;;;;;11.13;7.25;;;;;;;27.01;59.03;100919.88;6160549;23;20056;-78
2023/09/08 08:50:01;;;;;;;12.18;7.38;;;;;;;26.71;59.65;100917.75;6162580;23;20116;-81
2023/09/08 08:52:29;;;;;;;8.68;6.90;;;;;;;26.64;60.43;100926.00;6162226;23;20025;-82
2023/09/08 08:54:57;;;;;;;10.35;7.07;;;;;;;26.67;60.74;100930.88;6165045;23;20060;-80
2023/09/08 08:57:27;;;;;;;10.75;7.63;;;;;;;26.94;60.14;100927.34;6164285;23;20081;-81
2023/09/08 08:59:54;;;;;;;10.55;6.93;;;;;;;27.22;59.31;100929.72;6163480;23;20054;-81
2023/09/08 09:02:22;;;;;;;9.77;7.10;;;;;;;27.03;59.76;100913.19;6161547;23;20044;-81
2023/09/08 09:04:49;;;;;;;14.05;8.85;;;;;;;27.19;59.68;100922.16;6162922;23;20025;-79
2023/09/08 09:07:16;;;;;;;8.13;7.20;;;;;;;26.86;59.95;100919.75;6163844;23;20056;-82
2023/09/08 09:09:42;;;;;;;12.50;7.35;;;;;;;27.18;60.06;100922.41;6163324;23;20025;-84
2023/09/08 09:12:10;;;;;;;10.15;7.15;;;;;;;26.99;59.39;100914.75;6162563;23;20105;-80
2023/09/08 09:14:37;;;;;;;8.90;7.28;;;;;;;26.93;59.56;100914.97;6162830;23;20067;-85
2023/09/08 09:17:04;;;;;;;10.43;7.55;;;;;;;26.96;59.32;100911.78;6161868;23;20056;-83
2023/09/08 09:19:33;;;;;;;8.23;7.05;;;;;;;26.85;60.35;100912.78;6163552;23;20026;-80
2023/09/08 09:22:00;;;;;;;12.88;7.80;;;;;;;26.76;60.08;100915.09;6160580;23;20080;-82
2023/09/08 09:24:32;;;;;;;10.95;7.10;;;;;;;26.55;61.16;100910.63;6162156;23;20053;-81
2023/09/08 09:26:59;;;;;;;10.23;7.10;;;;;;;26.97;60.10;100921.47;6161291;23;20021;-82
2023/09/08 09:29:27;;;;;;;12.20;7.78;;;;;;;26.81;60.07;100915.16;6160968;23;20025;-82
2023/09/08 09:31:55;;;;;;;11.15;6.85;;;;;;;27.16;60.36;100908.44;6161038;23;20060;-86
2023/09/08 09:34:22;;;;;;;10.10;7.00;;;;;;;27.10;60.18;100905.72;6159963;23;20049;-82
2023/09/08 09:36:50;;;;;;;8.55;7.13;;;;;;;27.20;60.27;100923.78;6161049;23;20064;-80
2023/09/08 09:39:21;;;;;;;9.45;7.00;;;;;;;27.39;59.41;100914.22;6160688;23;20044;-81
2023/09/08 09:41:48;;;;;;;12.07;7.57;;;;;;;26.91;59.62;100901.00;6159261;23;20025;-82
2023/09/08 09:44:16;;;;;;;12.45;7.40;;;;;;;27.05;59.65;100904.88;6160246;23;20084;-83
2023/09/08 09:46:47;;;;;;;10.52;7.03;;;;;;;27.23;59.96;100911.72;6160197;23;20027;-83
2023/09/08 09:49:15;;;;;;;10.73;7.22;;;;;;;27.40;59.70;100907.78;6160428;23;20060;-80
2023/09/08 09:51:43;;;;;;;9.38;7.13;;;;;;;27.88;59.68;100913.13;6159217;23;20022;-83
2023/09/08 09:54:10;;;;;;;11.40;7.32;;;;;;;27.48;59.46;100894.91;6159972;23;20060;-81
2023/09/08 09:56:39;;;;;;;9.82;7.32;;;;;;;27.96;58.91;100894.56;6161285;23;20049;-81
2023/09/08 09:59:05;;;;;;;10.55;7.55;;;;;;;27.66;58.91;100894.47;6160958;23;20025;-85
2023/09/08 10:01:33;;;;;;;10.52;7.32;;;;;;;27.83;58.83;100899.66;6160453;23;20485;-82
2023/09/08 10:04:03;;;;;;;10.90;7.15;;;;;;;27.65;59.01;100899.06;6159466;23;20535;-79
2023/09/08 10:06:32;;;;;;;10.60;7.35;;;;;;;28.15;58.09;100881.44;6159935;23;20029;-81
2023/09/08 10:09:00;;;;;;;10.82;7.47;;;;;;;28.48;58.56;100896.31;6161606;23;20056;-81
2023/09/08 10:11:31;;;;;;;12.93;6.82;;;;;;;28.72;57.87;100896.59;6161060;23;20030;-80
2023/09/08 10:14:00;;;;;;;9.95;7.35;;;;;;;28.84;57.07;100889.03;6159554;23;20029;-80
2023/09/08 10:16:28;;;;;;;13.23;7.65;;;;;;;29.24;56.07;100877.41;6159483;23;20017;-81
2023/09/08 10:18:55;;;;;;;7.88;7.07;;;;;;;28.47;57.22;100883.91;6161513;23;20072;-83
2023/09/08 10:21:27;;;;;;;10.93;7.05;;;;;;;28.53;57.10;100882.84;6159813;23;20040;-82
2023/09/08 10:23:57;;;;;;;11.80;7.78;;;;;;;28.64;57.13;100879.09;6160579;23;20434;-82
2023/09/08 10:26:28;;;;;;;12.30;7.43;;;;;;;28.41;57.67;100879.59;6161123;23;20049;-83
2023/09/08 10:28:56;;;;;;;7.97;6.90;;;;;;;28.62;57.37;100875.03;6159753;23;20029;-82
2023/09/08 10:31:26;;;;;;;10.93;7.43;;;;;;;28.76;56.30;100869.94;6159055;23;20056;-81
2023/09/08 10:33:54;;;;;;;9.60;7.15;;;;;;;28.90;56.66;100881.78;6158914;23;20025;-82
2023/09/08 10:36:21;;;;;;;13.57;7.22;;;;;;;28.97;56.36;100876.91;6158879;23;20147;-84
2023/09/08 10:38:51;;;;;;;8.32;7.18;;;;;;;29.18;56.13;100865.03;6156132;23;20298;-79
2023/09/08 10:41:32;;;;;;;11.85;7.18;;;;;;;29.23;55.89;100865.00;6159960;23;20676;-83
2023/09/08 10:44:02;;;;;;;13.35;7.28;;;;;;;29.06;54.41;100859.94;6159990;23;20076;-81
2023/09/08 10:46:31;;;;;;;12.02;6.82;;;;;;;29.22;55.34;100866.09;6161705;23;20022;-81
2023/09/08 10:49:03;;;;;;;9.80;7.15;;;;;;;29.72;55.34;100864.31;6159748;23;20029;-79
2023/09/08 10:51:30;;;;;;;9.05;6.88;;;;;;;30.18;53.89;100858.66;6159386;23;20021;-83
2023/09/08 10:53:59;;;;;;;13.93;6.70;;;;;;;30.34;53.92;100860.13;6157544;23;20060;-80
2023/09/08 10:56:29;;;;;;;8.20;6.88;;;;;;;30.16;53.14;100853.53;6158507;23;20446;-80
2023/09/08 10:58:56;;;;;;;9.88;7.70;;;;;;;30.03;53.42;100846.88;6159246;23;20028;-80
2023/09/08 11:01:26;;;;;;;14.05;7.57;;;;;;;29.98;53.47;100854.16;6157807;23;20059;-80
2023/09/08 11:03:53;;;;;;;9.95;7.28;;;;;;;30.26;53.49;100852.63;6158977;23;20092;-80
2023/09/08 11:06:22;;;;;;;10.98;7.38;;;;;;;30.19;53.45;100854.88;6158867;23;20338;-80
2023/09/08 11:08:49;;;;;;;8.48;7.43;;;;;;;30.11;53.09;100855.47;6158611;23;20034;-81
2023/09/08 11:11:17;;;;;;;8.65;6.82;;;;;;;30.57;54.42;100872.94;6157413;23;20033;-80
2023/09/08 11:13:45;;;;;;;9.07;6.88;;;;;;;30.60;52.48;100850.75;6157101;23;20113;-79
2023/09/08 11:16:12;;;;;;;10.10;7.20;;;;;;;30.36;52.69;100841.75;6157219;23;20361;-77
2023/09/08 11:18:39;;;;;;;8.55;6.88;;;;;;;30.63;52.73;100860.19;6159841;23;20405;-81
2023/09/08 11:21:09;;;;;;;11.23;7.38;;;;;;;30.18;52.99;100848.66;6159180;23;20532;-80
2023/09/08 11:23:36;;;;;;;8.88;6.63;;;;;;;30.36;52.92;100860.66;6158551;23;20041;-81
2023/09/08 11:26:03;;;;;;;14.18;7.22;;;;;;;30.09;52.16;100839.53;6160656;23;20025;-79
2023/09/08 11:28:31;;;;;;;9.10;7.20;;;;;;;30.72;52.20;100858.47;6155618;23;20041;-79
2023/09/08 11:30:58;;;;;;;8.07;6.75;;;;;;;30.98;52.18;100857.13;6152965;23;20149;-81
2023/09/08 11:33:25;;;;;;;13.00;7.57;;;;;;;31.23;51.98;100852.56;6153538;23;20025;-79
2023/09/08 11:35:53;;;;;;;8.07;6.88;;;;;;;31.00;50.51;100846.03;6154280;23;20027;-79
2023/09/08 11:38:25;;;;;;;8.80;6.80;;;;;;;30.71;49.83;100834.47;6155213;23;20112;-79
2023/09/08 11:40:52;;;;;;;9.40;6.47;;;;;;;31.12;51.30;100851.06;6153160;23;20026;-81
2023/09/08 11:43:20;;;;;;;8.88;7.32;;;;;;;31.06;50.33;100836.00;6152228;23;20059;-78
2023/09/08 11:45:48;;;;;;;12.40;7.20;;;;;;;31.17;50.09;100849.13;6153313;23;20461;-79
2023/09/08 11:48:15;;;;;;;8.00;6.93;;;;;;;31.16;49.24;100830.50;6155115;23;20064;-79
2023/09/08 11:50:43;;;;;;;10.52;7.05;;;;;;;31.32;50.63;100848.94;6157300;23;20101;-80
2023/09/08 11:53:09;;;;;;;13.07;6.75;;;;;;;31.41;50.22;100832.06;6157729;23;20029;-81
2023/09/08 11:55:36;;;;;;;9.40;6.60;;;;;;;31.26;49.60;100841.97;6158077;23;20041;-79
2023/09/08 11:58:04;;;;;;;8.40;6.80;;;;;;;31.58;49.31;100838.59;6157412;23;20097;-79
2023/09/08 12:00:30;;;;;;;;;;;;;;;31.67;49.94;100841.44;6157917;23;20359;-80
2023/09/08 12:03:09;;;;;;;;;;;;;;;31.81;49.64;100847.78;6157052;23;19952;-80
2023/09/08 12:05:36;;;;;;;;;;;;;;;31.85;49.09;100837.16;6158376;23;19948;-80
2023/09/08 12:08:04;;;;;;;;;;;;;;;31.59;48.95;100836.72;6157893;23;19964;-80
2023/09/08 12:10:31;;;;;;;;;;;;;;;31.59;49.47;100828.59;6157632;23;19924;-81
2023/09/08 12:13:00;;;;;;;;;;;;;;;31.64;50.00;100837.44;6157122;23;20375;-80
2023/09/08 12:15:35;;;;;;;;;;;;;;;31.53;49.25;100824.34;6159306;23;19924;-80
2023/09/08 12:18:04;;;;;;;;;;;;;;;31.63;49.53;100829.63;6159432;23;19955;-79
2023/09/08 12:20:30;;;;;;;;;;;;;;;31.81;48.96;100826.13;6154053;23;19948;-78